sensor_id;sensor_type;location;lat;lon;timestamp;P1;durP1;ratioP1;P2;durP2;ratioP2
24261;SDS011;12385;51.412;5.540;2024-01-27T00:00:32;40.97;;;8.60;;
24261;SDS011;12385;51.412;5.540;2024-01-27T00:02:58;29.35;;;8.10;;
24261;SDS011;12385;51.412;5.540;2024-01-27T00:05:23;28.27;;;8.30;;
24261;SDS011;12385;51.412;5.540;2024-01-27T00:07:50;32.63;;;8.80;;
24261;SDS011;12385;51.412;5.540;2024-01-27T00:10:15;34.15;;;8.35;;
24261;SDS011;12385;51.412;5.540;2024-01-27T00:12:48;39.88;;;9.35;;
24261;SDS011;12385;51.412;5.540;2024-01-27T00:15:14;41.58;;;10.00;;
24261;SDS011;12385;51.412;5.540;2024-01-27T00:17:40;36.38;;;9.15;;
24261;SDS011;12385;51.412;5.540;2024-01-27T00:20:06;36.67;;;9.20;;
24261;SDS011;12385;51.412;5.540;2024-01-27T00:22:33;36.78;;;9.45;;
24261;SDS011;12385;51.412;5.540;2024-01-27T00:24:58;33.38;;;9.05;;
24261;SDS011;12385;51.412;5.540;2024-01-27T00:27:24;34.33;;;9.98;;
24261;SDS011;12385;51.412;5.540;2024-01-27T00:29:50;32.80;;;9.70;;
24261;SDS011;12385;51.412;5.540;2024-01-27T00:32:15;40.85;;;10.23;;
24261;SDS011;12385;51.412;5.540;2024-01-27T00:34:41;34.90;;;9.48;;
24261;SDS011;12385;51.412;5.540;2024-01-27T00:37:06;35.05;;;9.95;;
24261;SDS011;12385;51.412;5.540;2024-01-27T00:39:32;35.28;;;9.30;;
24261;SDS011;12385;51.412;5.540;2024-01-27T00:41:58;33.85;;;9.82;;
24261;SDS011;12385;51.412;5.540;2024-01-27T00:44:24;34.03;;;10.30;;
24261;SDS011;12385;51.412;5.540;2024-01-27T00:46:50;37.10;;;10.23;;
24261;SDS011;12385;51.412;5.540;2024-01-27T00:49:15;44.72;;;10.15;;
24261;SDS011;12385;51.412;5.540;2024-01-27T00:51:44;43.20;;;10.23;;
24261;SDS011;12385;51.412;5.540;2024-01-27T00:54:09;42.30;;;9.65;;
24261;SDS011;12385;51.412;5.540;2024-01-27T00:56:35;41.67;;;10.68;;
24261;SDS011;12385;51.412;5.540;2024-01-27T00:59:01;38.28;;;10.30;;
24261;SDS011;12385;51.412;5.540;2024-01-27T01:01:26;32.95;;;9.32;;
24261;SDS011;12385;51.412;5.540;2024-01-27T01:03:52;37.47;;;10.52;;
24261;SDS011;12385;51.412;5.540;2024-01-27T01:06:18;34.42;;;9.77;;
24261;SDS011;12385;51.412;5.540;2024-01-27T01:08:44;40.88;;;10.88;;
24261;SDS011;12385;51.412;5.540;2024-01-27T01:11:10;37.25;;;10.68;;
24261;SDS011;12385;51.412;5.540;2024-01-27T01:13:36;31.58;;;10.15;;
24261;SDS011;12385;51.412;5.540;2024-01-27T01:16:02;37.97;;;10.57;;
24261;SDS011;12385;51.412;5.540;2024-01-27T01:18:28;46.67;;;10.60;;
24261;SDS011;12385;51.412;5.540;2024-01-27T01:20:54;43.25;;;10.40;;
24261;SDS011;12385;51.412;5.540;2024-01-27T01:23:19;41.55;;;11.65;;
24261;SDS011;12385;51.412;5.540;2024-01-27T01:25:45;34.00;;;10.43;;
24261;SDS011;12385;51.412;5.540;2024-01-27T01:28:10;33.42;;;10.32;;
24261;SDS011;12385;51.412;5.540;2024-01-27T01:30:37;41.90;;;10.93;;
24261;SDS011;12385;51.412;5.540;2024-01-27T01:33:02;39.90;;;10.90;;
24261;SDS011;12385;51.412;5.540;2024-01-27T01:35:28;38.00;;;11.05;;
24261;SDS011;12385;51.412;5.540;2024-01-27T01:37:54;38.85;;;12.60;;
24261;SDS011;12385;51.412;5.540;2024-01-27T01:40:20;39.38;;;10.80;;
24261;SDS011;12385;51.412;5.540;2024-01-27T01:42:50;34.40;;;10.85;;
24261;SDS011;12385;51.412;5.540;2024-01-27T01:45:19;41.70;;;11.50;;
24261;SDS011;12385;51.412;5.540;2024-01-27T01:47:45;41.35;;;11.93;;
24261;SDS011;12385;51.412;5.540;2024-01-27T01:50:14;41.05;;;11.90;;
24261;SDS011;12385;51.412;5.540;2024-01-27T01:52:40;42.28;;;12.43;;
24261;SDS011;12385;51.412;5.540;2024-01-27T01:55:06;44.25;;;12.27;;
24261;SDS011;12385;51.412;5.540;2024-01-27T01:57:33;39.90;;;12.15;;
24261;SDS011;12385;51.412;5.540;2024-01-27T01:59:59;32.42;;;11.05;;
24261;SDS011;12385;51.412;5.540;2024-01-27T02:02:24;50.08;;;12.07;;
24261;SDS011;12385;51.412;5.540;2024-01-27T02:04:50;41.97;;;13.15;;
24261;SDS011;12385;51.412;5.540;2024-01-27T02:07:18;42.47;;;11.75;;
24261;SDS011;12385;51.412;5.540;2024-01-27T02:09:44;41.45;;;12.07;;
24261;SDS011;12385;51.412;5.540;2024-01-27T02:12:09;36.97;;;11.43;;
24261;SDS011;12385;51.412;5.540;2024-01-27T02:14:35;38.10;;;10.85;;
24261;SDS011;12385;51.412;5.540;2024-01-27T02:17:01;46.10;;;12.80;;
24261;SDS011;12385;51.412;5.540;2024-01-27T02:19:27;48.60;;;11.60;;
24261;SDS011;12385;51.412;5.540;2024-01-27T02:21:53;40.40;;;12.10;;
24261;SDS011;12385;51.412;5.540;2024-01-27T02:24:18;44.97;;;11.65;;
24261;SDS011;12385;51.412;5.540;2024-01-27T02:26:44;45.97;;;12.50;;
24261;SDS011;12385;51.412;5.540;2024-01-27T02:29:09;45.63;;;13.40;;
24261;SDS011;12385;51.412;5.540;2024-01-27T02:31:35;41.35;;;12.25;;
24261;SDS011;12385;51.412;5.540;2024-01-27T02:34:01;42.63;;;11.70;;
24261;SDS011;12385;51.412;5.540;2024-01-27T02:36:26;40.35;;;11.40;;
24261;SDS011;12385;51.412;5.540;2024-01-27T02:38:52;44.25;;;11.57;;
24261;SDS011;12385;51.412;5.540;2024-01-27T02:41:18;49.85;;;11.75;;
24261;SDS011;12385;51.412;5.540;2024-01-27T02:43:44;45.90;;;11.60;;
24261;SDS011;12385;51.412;5.540;2024-01-27T02:46:11;44.95;;;12.60;;
24261;SDS011;12385;51.412;5.540;2024-01-27T02:48:43;34.15;;;11.07;;
24261;SDS011;12385;51.412;5.540;2024-01-27T02:51:09;48.63;;;11.55;;
24261;SDS011;12385;51.412;5.540;2024-01-27T02:53:34;44.00;;;10.88;;
24261;SDS011;12385;51.412;5.540;2024-01-27T02:56:00;47.80;;;11.50;;
24261;SDS011;12385;51.412;5.540;2024-01-27T02:58:26;44.38;;;11.57;;
24261;SDS011;12385;51.412;5.540;2024-01-27T03:00:52;34.50;;;11.57;;
24261;SDS011;12385;51.412;5.540;2024-01-27T03:03:18;41.38;;;11.65;;
24261;SDS011;12385;51.412;5.540;2024-01-27T03:05:44;44.60;;;11.10;;
24261;SDS011;12385;51.412;5.540;2024-01-27T03:08:10;43.60;;;11.70;;
24261;SDS011;12385;51.412;5.540;2024-01-27T03:10:35;45.38;;;11.20;;
24261;SDS011;12385;51.412;5.540;2024-01-27T03:13:01;33.65;;;10.98;;
24261;SDS011;12385;51.412;5.540;2024-01-27T03:15:27;44.20;;;11.27;;
24261;SDS011;12385;51.412;5.540;2024-01-27T03:17:53;36.88;;;10.88;;
24261;SDS011;12385;51.412;5.540;2024-01-27T03:20:22;44.33;;;12.18;;
24261;SDS011;12385;51.412;5.540;2024-01-27T03:22:48;39.88;;;11.15;;
24261;SDS011;12385;51.412;5.540;2024-01-27T03:25:15;39.70;;;11.02;;
24261;SDS011;12385;51.412;5.540;2024-01-27T03:27:44;40.55;;;11.60;;
24261;SDS011;12385;51.412;5.540;2024-01-27T03:30:10;39.70;;;11.55;;
24261;SDS011;12385;51.412;5.540;2024-01-27T03:32:35;41.35;;;11.70;;
24261;SDS011;12385;51.412;5.540;2024-01-27T03:35:01;38.08;;;10.82;;
24261;SDS011;12385;51.412;5.540;2024-01-27T03:37:28;44.65;;;12.02;;
24261;SDS011;12385;51.412;5.540;2024-01-27T03:39:54;37.65;;;11.52;;
24261;SDS011;12385;51.412;5.540;2024-01-27T03:42:20;34.13;;;11.25;;
24261;SDS011;12385;51.412;5.540;2024-01-27T03:44:49;44.47;;;12.25;;
24261;SDS011;12385;51.412;5.540;2024-01-27T03:47:14;39.58;;;11.98;;
24261;SDS011;12385;51.412;5.540;2024-01-27T03:49:41;43.83;;;12.40;;
24261;SDS011;12385;51.412;5.540;2024-01-27T03:52:06;42.20;;;13.32;;
24261;SDS011;12385;51.412;5.540;2024-01-27T03:54:32;46.90;;;12.55;;
24261;SDS011;12385;51.412;5.540;2024-01-27T03:56:58;45.53;;;11.48;;
24261;SDS011;12385;51.412;5.540;2024-01-27T03:59:23;36.65;;;13.07;;
24261;SDS011;12385;51.412;5.540;2024-01-27T04:01:49;43.38;;;12.55;;
24261;SDS011;12385;51.412;5.540;2024-01-27T04:04:15;40.20;;;12.68;;
24261;SDS011;12385;51.412;5.540;2024-01-27T04:06:44;44.47;;;12.32;;
24261;SDS011;12385;51.412;5.540;2024-01-27T04:09:09;42.10;;;12.95;;
24261;SDS011;12385;51.412;5.540;2024-01-27T04:11:35;52.60;;;14.07;;
24261;SDS011;12385;51.412;5.540;2024-01-27T04:14:03;42.33;;;12.95;;
24261;SDS011;12385;51.412;5.540;2024-01-27T04:16:29;32.92;;;13.60;;
24261;SDS011;12385;51.412;5.540;2024-01-27T04:18:55;47.78;;;15.13;;
24261;SDS011;12385;51.412;5.540;2024-01-27T04:21:21;47.17;;;14.25;;
24261;SDS011;12385;51.412;5.540;2024-01-27T04:23:48;47.50;;;15.30;;
24261;SDS011;12385;51.412;5.540;2024-01-27T04:26:15;41.50;;;13.13;;
24261;SDS011;12385;51.412;5.540;2024-01-27T04:28:40;49.35;;;16.13;;
24261;SDS011;12385;51.412;5.540;2024-01-27T04:31:06;51.30;;;14.43;;
24261;SDS011;12385;51.412;5.540;2024-01-27T04:33:32;40.33;;;14.55;;
24261;SDS011;12385;51.412;5.540;2024-01-27T04:35:58;42.47;;;15.05;;
24261;SDS011;12385;51.412;5.540;2024-01-27T04:38:24;44.72;;;14.98;;
24261;SDS011;12385;51.412;5.540;2024-01-27T04:40:50;45.03;;;14.85;;
24261;SDS011;12385;51.412;5.540;2024-01-27T04:43:20;45.10;;;16.00;;
24261;SDS011;12385;51.412;5.540;2024-01-27T04:45:48;40.22;;;14.77;;
24261;SDS011;12385;51.412;5.540;2024-01-27T04:48:14;49.40;;;14.50;;
24261;SDS011;12385;51.412;5.540;2024-01-27T04:50:40;47.50;;;15.32;;
24261;SDS011;12385;51.412;5.540;2024-01-27T04:53:06;45.90;;;15.55;;
24261;SDS011;12385;51.412;5.540;2024-01-27T04:55:32;46.00;;;15.05;;
24261;SDS011;12385;51.412;5.540;2024-01-27T04:57:57;50.40;;;14.45;;
24261;SDS011;12385;51.412;5.540;2024-01-27T05:00:24;43.15;;;15.57;;
24261;SDS011;12385;51.412;5.540;2024-01-27T05:02:54;47.47;;;16.50;;
24261;SDS011;12385;51.412;5.540;2024-01-27T05:05:20;40.88;;;16.17;;
24261;SDS011;12385;51.412;5.540;2024-01-27T05:07:45;40.78;;;15.18;;
24261;SDS011;12385;51.412;5.540;2024-01-27T05:10:14;48.83;;;17.33;;
24261;SDS011;12385;51.412;5.540;2024-01-27T05:12:43;53.75;;;16.85;;
24261;SDS011;12385;51.412;5.540;2024-01-27T05:15:10;46.50;;;17.35;;
24261;SDS011;12385;51.412;5.540;2024-01-27T05:17:36;54.00;;;16.45;;
24261;SDS011;12385;51.412;5.540;2024-01-27T05:20:01;49.40;;;17.08;;
24261;SDS011;12385;51.412;5.540;2024-01-27T05:22:29;46.97;;;16.13;;
24261;SDS011;12385;51.412;5.540;2024-01-27T05:24:55;55.28;;;17.88;;
24261;SDS011;12385;51.412;5.540;2024-01-27T05:27:21;48.50;;;16.65;;
24261;SDS011;12385;51.412;5.540;2024-01-27T05:29:48;55.33;;;18.10;;
24261;SDS011;12385;51.412;5.540;2024-01-27T05:32:14;52.42;;;17.20;;
24261;SDS011;12385;51.412;5.540;2024-01-27T05:34:40;58.15;;;20.27;;
24261;SDS011;12385;51.412;5.540;2024-01-27T05:37:05;60.22;;;19.85;;
24261;SDS011;12385;51.412;5.540;2024-01-27T05:39:31;52.72;;;18.20;;
24261;SDS011;12385;51.412;5.540;2024-01-27T05:41:58;54.63;;;19.50;;
24261;SDS011;12385;51.412;5.540;2024-01-27T05:44:27;54.65;;;18.75;;
24261;SDS011;12385;51.412;5.540;2024-01-27T05:46:53;51.87;;;19.57;;
24261;SDS011;12385;51.412;5.540;2024-01-27T05:49:20;54.80;;;20.83;;
24261;SDS011;12385;51.412;5.540;2024-01-27T05:51:48;50.90;;;20.63;;
24261;SDS011;12385;51.412;5.540;2024-01-27T05:54:15;52.92;;;20.27;;
24261;SDS011;12385;51.412;5.540;2024-01-27T05:56:43;55.05;;;19.58;;
24261;SDS011;12385;51.412;5.540;2024-01-27T05:59:09;55.33;;;20.70;;
24261;SDS011;12385;51.412;5.540;2024-01-27T06:01:35;56.10;;;20.00;;
24261;SDS011;12385;51.412;5.540;2024-01-27T06:04:00;64.30;;;19.95;;
24261;SDS011;12385;51.412;5.540;2024-01-27T06:06:27;54.83;;;20.75;;
24261;SDS011;12385;51.412;5.540;2024-01-27T06:08:52;57.10;;;20.25;;
24261;SDS011;12385;51.412;5.540;2024-01-27T06:11:24;59.40;;;21.67;;
24261;SDS011;12385;51.412;5.540;2024-01-27T06:13:50;42.90;;;19.23;;
24261;SDS011;12385;51.412;5.540;2024-01-27T06:16:18;54.83;;;22.08;;
24261;SDS011;12385;51.412;5.540;2024-01-27T06:18:44;58.28;;;21.98;;
24261;SDS011;12385;51.412;5.540;2024-01-27T06:21:10;64.68;;;22.85;;
24261;SDS011;12385;51.412;5.540;2024-01-27T06:23:37;54.22;;;21.40;;
24261;SDS011;12385;51.412;5.540;2024-01-27T06:26:06;52.08;;;22.00;;
24261;SDS011;12385;51.412;5.540;2024-01-27T06:28:32;59.72;;;21.63;;
24261;SDS011;12385;51.412;5.540;2024-01-27T06:30:58;56.65;;;21.42;;
24261;SDS011;12385;51.412;5.540;2024-01-27T06:33:24;65.40;;;27.77;;
24261;SDS011;12385;51.412;5.540;2024-01-27T06:35:49;54.30;;;24.30;;
24261;SDS011;12385;51.412;5.540;2024-01-27T06:38:18;57.35;;;23.98;;
24261;SDS011;12385;51.412;5.540;2024-01-27T06:40:44;55.17;;;22.15;;
24261;SDS011;12385;51.412;5.540;2024-01-27T06:43:11;61.88;;;22.90;;
24261;SDS011;12385;51.412;5.540;2024-01-27T06:45:39;65.78;;;23.65;;
24261;SDS011;12385;51.412;5.540;2024-01-27T06:48:05;65.70;;;24.00;;
24261;SDS011;12385;51.412;5.540;2024-01-27T06:50:32;63.85;;;23.73;;
24261;SDS011;12385;51.412;5.540;2024-01-27T06:52:59;63.97;;;25.27;;
24261;SDS011;12385;51.412;5.540;2024-01-27T06:55:26;58.10;;;25.55;;
24261;SDS011;12385;51.412;5.540;2024-01-27T06:57:52;61.97;;;23.92;;
24261;SDS011;12385;51.412;5.540;2024-01-27T07:00:18;65.38;;;25.98;;
24261;SDS011;12385;51.412;5.540;2024-01-27T07:02:44;60.38;;;25.80;;
24261;SDS011;12385;51.412;5.540;2024-01-27T07:05:10;65.65;;;25.58;;
24261;SDS011;12385;51.412;5.540;2024-01-27T07:07:37;62.67;;;25.52;;
24261;SDS011;12385;51.412;5.540;2024-01-27T07:10:03;70.50;;;27.80;;
24261;SDS011;12385;51.412;5.540;2024-01-27T07:12:28;72.00;;;27.75;;
24261;SDS011;12385;51.412;5.540;2024-01-27T07:14:54;73.80;;;29.00;;
24261;SDS011;12385;51.412;5.540;2024-01-27T07:17:20;77.20;;;32.22;;
24261;SDS011;12385;51.412;5.540;2024-01-27T07:19:49;79.50;;;32.22;;
24261;SDS011;12385;51.412;5.540;2024-01-27T07:22:18;71.47;;;29.67;;
24261;SDS011;12385;51.412;5.540;2024-01-27T07:24:44;76.82;;;30.35;;
24261;SDS011;12385;51.412;5.540;2024-01-27T07:27:12;72.85;;;32.00;;
24261;SDS011;12385;51.412;5.540;2024-01-27T07:29:38;69.57;;;28.37;;
24261;SDS011;12385;51.412;5.540;2024-01-27T07:32:04;76.05;;;29.67;;
24261;SDS011;12385;51.412;5.540;2024-01-27T07:34:32;73.30;;;29.50;;
24261;SDS011;12385;51.412;5.540;2024-01-27T07:36:58;75.13;;;31.67;;
24261;SDS011;12385;51.412;5.540;2024-01-27T07:39:24;81.38;;;30.50;;
24261;SDS011;12385;51.412;5.540;2024-01-27T07:41:49;71.22;;;29.10;;
24261;SDS011;12385;51.412;5.540;2024-01-27T07:44:15;72.28;;;27.90;;
24261;SDS011;12385;51.412;5.540;2024-01-27T07:46:43;81.20;;;29.13;;
24261;SDS011;12385;51.412;5.540;2024-01-27T07:49:09;70.30;;;30.23;;
24261;SDS011;12385;51.412;5.540;2024-01-27T07:51:37;69.80;;;27.33;;
24261;SDS011;12385;51.412;5.540;2024-01-27T07:54:03;81.90;;;30.52;;
24261;SDS011;12385;51.412;5.540;2024-01-27T07:56:29;76.97;;;28.20;;
24261;SDS011;12385;51.412;5.540;2024-01-27T07:58:55;86.88;;;32.20;;
24261;SDS011;12385;51.412;5.540;2024-01-27T08:01:21;79.63;;;31.17;;
24261;SDS011;12385;51.412;5.540;2024-01-27T08:03:48;90.13;;;31.00;;
24261;SDS011;12385;51.412;5.540;2024-01-27T08:06:21;76.18;;;30.13;;
24261;SDS011;12385;51.412;5.540;2024-01-27T08:08:54;70.32;;;29.08;;
24261;SDS011;12385;51.412;5.540;2024-01-27T08:11:20;73.32;;;28.27;;
24261;SDS011;12385;51.412;5.540;2024-01-27T08:13:49;71.45;;;28.15;;
24261;SDS011;12385;51.412;5.540;2024-01-27T08:16:15;57.13;;;22.75;;
24261;SDS011;12385;51.412;5.540;2024-01-27T08:18:44;69.43;;;27.88;;
24261;SDS011;12385;51.412;5.540;2024-01-27T08:21:10;76.78;;;28.88;;
24261;SDS011;12385;51.412;5.540;2024-01-27T08:23:38;69.83;;;27.97;;
24261;SDS011;12385;51.412;5.540;2024-01-27T08:26:05;79.65;;;27.65;;
24261;SDS011;12385;51.412;5.540;2024-01-27T08:28:30;71.55;;;27.08;;
24261;SDS011;12385;51.412;5.540;2024-01-27T08:30:56;68.10;;;26.15;;
24261;SDS011;12385;51.412;5.540;2024-01-27T08:33:25;67.97;;;28.92;;
24261;SDS011;12385;51.412;5.540;2024-01-27T08:35:51;84.32;;;29.92;;
24261;SDS011;12385;51.412;5.540;2024-01-27T08:38:18;65.20;;;26.80;;
24261;SDS011;12385;51.412;5.540;2024-01-27T08:40:44;77.18;;;28.73;;
24261;SDS011;12385;51.412;5.540;2024-01-27T08:43:10;69.47;;;27.10;;
24261;SDS011;12385;51.412;5.540;2024-01-27T08:45:36;65.15;;;26.30;;
24261;SDS011;12385;51.412;5.540;2024-01-27T08:48:04;67.57;;;27.42;;
24261;SDS011;12385;51.412;5.540;2024-01-27T08:50:29;74.38;;;27.23;;
24261;SDS011;12385;51.412;5.540;2024-01-27T08:52:55;72.00;;;25.35;;
24261;SDS011;12385;51.412;5.540;2024-01-27T08:55:20;69.93;;;25.95;;
24261;SDS011;12385;51.412;5.540;2024-01-27T08:57:50;68.93;;;25.98;;
24261;SDS011;12385;51.412;5.540;2024-01-27T09:00:18;63.20;;;24.60;;
24261;SDS011;12385;51.412;5.540;2024-01-27T09:02:45;59.38;;;23.85;;
24261;SDS011;12385;51.412;5.540;2024-01-27T09:05:16;59.40;;;24.17;;
24261;SDS011;12385;51.412;5.540;2024-01-27T09:07:44;75.18;;;24.58;;
24261;SDS011;12385;51.412;5.540;2024-01-27T09:10:10;59.58;;;23.23;;
24261;SDS011;12385;51.412;5.540;2024-01-27T09:12:37;62.53;;;22.98;;
24261;SDS011;12385;51.412;5.540;2024-01-27T09:15:03;61.63;;;21.50;;
24261;SDS011;12385;51.412;5.540;2024-01-27T09:17:30;59.72;;;21.05;;
24261;SDS011;12385;51.412;5.540;2024-01-27T09:19:56;57.97;;;21.10;;
24261;SDS011;12385;51.412;5.540;2024-01-27T09:22:21;52.92;;;21.08;;
24261;SDS011;12385;51.412;5.540;2024-01-27T09:24:50;60.58;;;20.88;;
24261;SDS011;12385;51.412;5.540;2024-01-27T09:27:18;46.35;;;20.02;;
24261;SDS011;12385;51.412;5.540;2024-01-27T09:29:44;50.90;;;19.92;;
24261;SDS011;12385;51.412;5.540;2024-01-27T09:32:10;55.67;;;19.70;;
24261;SDS011;12385;51.412;5.540;2024-01-27T09:34:36;57.88;;;19.70;;
24261;SDS011;12385;51.412;5.540;2024-01-27T09:37:01;54.70;;;19.17;;
24261;SDS011;12385;51.412;5.540;2024-01-27T09:39:27;50.00;;;19.23;;
24261;SDS011;12385;51.412;5.540;2024-01-27T09:41:53;51.90;;;17.88;;
24261;SDS011;12385;51.412;5.540;2024-01-27T09:44:20;48.60;;;18.42;;
24261;SDS011;12385;51.412;5.540;2024-01-27T09:46:48;47.67;;;18.17;;
24261;SDS011;12385;51.412;5.540;2024-01-27T09:49:14;50.95;;;18.50;;
24261;SDS011;12385;51.412;5.540;2024-01-27T09:51:43;52.80;;;18.60;;
24261;SDS011;12385;51.412;5.540;2024-01-27T09:54:09;50.08;;;17.17;;
24261;SDS011;12385;51.412;5.540;2024-01-27T09:56:35;44.65;;;16.70;;
24261;SDS011;12385;51.412;5.540;2024-01-27T09:59:01;46.15;;;17.00;;
24261;SDS011;12385;51.412;5.540;2024-01-27T10:01:27;47.42;;;17.27;;
24261;SDS011;12385;51.412;5.540;2024-01-27T10:03:56;47.55;;;17.45;;
24261;SDS011;12385;51.412;5.540;2024-01-27T10:08:53;43.03;;;16.17;;
24261;SDS011;12385;51.412;5.540;2024-01-27T10:11:20;59.60;;;16.30;;
24261;SDS011;12385;51.412;5.540;2024-01-27T10:13:54;46.83;;;16.65;;
24261;SDS011;12385;51.412;5.540;2024-01-27T10:16:26;41.83;;;15.63;;
24261;SDS011;12385;51.412;5.540;2024-01-27T10:19:02;50.20;;;15.48;;
24261;SDS011;12385;51.412;5.540;2024-01-27T10:21:28;48.38;;;14.93;;
24261;SDS011;12385;51.412;5.540;2024-01-27T10:23:54;44.47;;;14.55;;
24261;SDS011;12385;51.412;5.540;2024-01-27T10:26:20;52.33;;;14.75;;
24261;SDS011;12385;51.412;5.540;2024-01-27T10:28:55;46.78;;;14.38;;
24261;SDS011;12385;51.412;5.540;2024-01-27T10:31:25;46.35;;;14.23;;
24261;SDS011;12385;51.412;5.540;2024-01-27T10:33:52;44.17;;;13.15;;
24261;SDS011;12385;51.412;5.540;2024-01-27T10:36:19;40.58;;;11.18;;
24261;SDS011;12385;51.412;5.540;2024-01-27T10:38:45;36.83;;;9.98;;
24261;SDS011;12385;51.412;5.540;2024-01-27T10:41:21;39.50;;;10.52;;
24261;SDS011;12385;51.412;5.540;2024-01-27T10:43:52;37.13;;;10.25;;
24261;SDS011;12385;51.412;5.540;2024-01-27T10:46:19;35.55;;;9.77;;
24261;SDS011;12385;51.412;5.540;2024-01-27T10:48:50;42.92;;;10.35;;
24261;SDS011;12385;51.412;5.540;2024-01-27T10:51:22;36.58;;;8.88;;
24261;SDS011;12385;51.412;5.540;2024-01-27T10:53:55;29.48;;;9.50;;
24261;SDS011;12385;51.412;5.540;2024-01-27T10:56:31;31.48;;;9.68;;
24261;SDS011;12385;51.412;5.540;2024-01-27T10:59:00;38.08;;;9.48;;
24261;SDS011;12385;51.412;5.540;2024-01-27T11:01:29;29.27;;;8.35;;
24261;SDS011;12385;51.412;5.540;2024-01-27T11:03:56;31.48;;;8.95;;
24261;SDS011;12385;51.412;5.540;2024-01-27T11:06:24;35.30;;;8.32;;
24261;SDS011;12385;51.412;5.540;2024-01-27T11:08:52;28.90;;;7.72;;
24261;SDS011;12385;51.412;5.540;2024-01-27T11:11:19;36.13;;;8.55;;
24261;SDS011;12385;51.412;5.540;2024-01-27T11:13:45;32.25;;;8.10;;
24261;SDS011;12385;51.412;5.540;2024-01-27T11:16:19;29.58;;;8.35;;
24261;SDS011;12385;51.412;5.540;2024-01-27T11:18:50;34.55;;;8.57;;
24261;SDS011;12385;51.412;5.540;2024-01-27T11:21:16;33.35;;;7.75;;
24261;SDS011;12385;51.412;5.540;2024-01-27T11:23:45;30.25;;;8.18;;
24261;SDS011;12385;51.412;5.540;2024-01-27T11:26:19;29.40;;;8.18;;
24261;SDS011;12385;51.412;5.540;2024-01-27T11:28:49;29.75;;;8.40;;
24261;SDS011;12385;51.412;5.540;2024-01-27T11:31:18;24.13;;;7.10;;
24261;SDS011;12385;51.412;5.540;2024-01-27T11:33:46;22.63;;;6.78;;
24261;SDS011;12385;51.412;5.540;2024-01-27T11:36:20;27.25;;;6.88;;
24261;SDS011;12385;51.412;5.540;2024-01-27T11:38:50;30.90;;;6.93;;
24261;SDS011;12385;51.412;5.540;2024-01-27T11:41:26;26.00;;;6.72;;
24261;SDS011;12385;51.412;5.540;2024-01-27T11:43:54;21.48;;;5.82;;
24261;SDS011;12385;51.412;5.540;2024-01-27T11:46:22;30.75;;;6.60;;
24261;SDS011;12385;51.412;5.540;2024-01-27T11:48:48;22.60;;;5.55;;
24261;SDS011;12385;51.412;5.540;2024-01-27T11:51:19;26.48;;;5.38;;
24261;SDS011;12385;51.412;5.540;2024-01-27T11:53:51;17.90;;;4.90;;
24261;SDS011;12385;51.412;5.540;2024-01-27T11:56:18;19.60;;;4.63;;
24261;SDS011;12385;51.412;5.540;2024-01-27T11:58:49;20.70;;;4.43;;
24261;SDS011;12385;51.412;5.540;2024-01-27T12:01:14;21.67;;;4.95;;
24261;SDS011;12385;51.412;5.540;2024-01-27T12:03:43;18.48;;;4.97;;
24261;SDS011;12385;51.412;5.540;2024-01-27T12:06:10;22.95;;;4.70;;
24261;SDS011;12385;51.412;5.540;2024-01-27T12:08:36;23.40;;;5.45;;
24261;SDS011;12385;51.412;5.540;2024-01-27T12:11:01;17.75;;;4.20;;
24261;SDS011;12385;51.412;5.540;2024-01-27T12:13:28;17.80;;;4.43;;
24261;SDS011;12385;51.412;5.540;2024-01-27T12:15:54;17.73;;;4.05;;
24261;SDS011;12385;51.412;5.540;2024-01-27T12:18:20;21.13;;;4.28;;
24261;SDS011;12385;51.412;5.540;2024-01-27T12:20:48;18.55;;;3.97;;
24261;SDS011;12385;51.412;5.540;2024-01-27T12:23:21;12.00;;;3.83;;
24261;SDS011;12385;51.412;5.540;2024-01-27T12:25:54;22.27;;;4.75;;
24261;SDS011;12385;51.412;5.540;2024-01-27T12:28:21;20.73;;;4.40;;
24261;SDS011;12385;51.412;5.540;2024-01-27T12:30:49;18.58;;;4.18;;
24261;SDS011;12385;51.412;5.540;2024-01-27T12:33:18;16.45;;;4.40;;
24261;SDS011;12385;51.412;5.540;2024-01-27T12:35:51;17.67;;;4.03;;
24261;SDS011;12385;51.412;5.540;2024-01-27T12:38:19;21.65;;;4.45;;
24261;SDS011;12385;51.412;5.540;2024-01-27T12:40:48;24.30;;;4.28;;
24261;SDS011;12385;51.412;5.540;2024-01-27T12:43:14;16.52;;;4.30;;
24261;SDS011;12385;51.412;5.540;2024-01-27T12:45:43;24.15;;;5.05;;
24261;SDS011;12385;51.412;5.540;2024-01-27T12:48:08;19.10;;;4.32;;
24261;SDS011;12385;51.412;5.540;2024-01-27T12:50:34;17.20;;;4.10;;
24261;SDS011;12385;51.412;5.540;2024-01-27T12:53:00;16.77;;;4.85;;
24261;SDS011;12385;51.412;5.540;2024-01-27T12:55:25;16.85;;;4.32;;
24261;SDS011;12385;51.412;5.540;2024-01-27T12:57:54;23.35;;;5.35;;
24261;SDS011;12385;51.412;5.540;2024-01-27T13:00:22;18.48;;;4.80;;
24261;SDS011;12385;51.412;5.540;2024-01-27T13:02:48;17.73;;;4.32;;
24261;SDS011;12385;51.412;5.540;2024-01-27T13:05:13;17.05;;;4.25;;
24261;SDS011;12385;51.412;5.540;2024-01-27T13:07:43;20.17;;;5.18;;
24261;SDS011;12385;51.412;5.540;2024-01-27T13:10:10;19.35;;;5.28;;
24261;SDS011;12385;51.412;5.540;2024-01-27T13:12:35;18.65;;;4.75;;
24261;SDS011;12385;51.412;5.540;2024-01-27T13:15:01;24.05;;;5.40;;
24261;SDS011;12385;51.412;5.540;2024-01-27T13:17:28;29.05;;;5.30;;
24261;SDS011;12385;51.412;5.540;2024-01-27T13:19:54;21.52;;;4.63;;
24261;SDS011;12385;51.412;5.540;2024-01-27T13:22:20;17.25;;;4.13;;
24261;SDS011;12385;51.412;5.540;2024-01-27T13:24:49;18.40;;;3.67;;
24261;SDS011;12385;51.412;5.540;2024-01-27T13:27:14;18.77;;;4.25;;
24261;SDS011;12385;51.412;5.540;2024-01-27T13:29:43;20.00;;;4.10;;
24261;SDS011;12385;51.412;5.540;2024-01-27T13:32:12;19.37;;;3.97;;
24261;SDS011;12385;51.412;5.540;2024-01-27T13:34:38;18.50;;;4.28;;
24261;SDS011;12385;51.412;5.540;2024-01-27T13:37:03;17.75;;;3.50;;
24261;SDS011;12385;51.412;5.540;2024-01-27T13:39:29;18.90;;;3.70;;
24261;SDS011;12385;51.412;5.540;2024-01-27T13:41:55;18.88;;;4.82;;
24261;SDS011;12385;51.412;5.540;2024-01-27T13:44:20;16.65;;;3.97;;
24261;SDS011;12385;51.412;5.540;2024-01-27T13:46:49;20.88;;;3.95;;
24261;SDS011;12385;51.412;5.540;2024-01-27T13:49:18;21.80;;;3.70;;
24261;SDS011;12385;51.412;5.540;2024-01-27T13:51:45;15.00;;;3.65;;
24261;SDS011;12385;51.412;5.540;2024-01-27T13:54:14;15.43;;;3.15;;
24261;SDS011;12385;51.412;5.540;2024-01-27T13:56:41;13.77;;;3.65;;
24261;SDS011;12385;51.412;5.540;2024-01-27T13:59:07;18.10;;;4.15;;
24261;SDS011;12385;51.412;5.540;2024-01-27T14:01:34;17.35;;;3.72;;
24261;SDS011;12385;51.412;5.540;2024-01-27T14:03:59;16.90;;;3.70;;
24261;SDS011;12385;51.412;5.540;2024-01-27T14:06:25;17.65;;;3.72;;
24261;SDS011;12385;51.412;5.540;2024-01-27T14:08:51;16.25;;;3.40;;
24261;SDS011;12385;51.412;5.540;2024-01-27T14:11:18;17.42;;;4.18;;
24261;SDS011;12385;51.412;5.540;2024-01-27T14:13:44;15.50;;;3.65;;
24261;SDS011;12385;51.412;5.540;2024-01-27T14:16:09;20.00;;;4.03;;
24261;SDS011;12385;51.412;5.540;2024-01-27T14:18:35;16.70;;;3.67;;
24261;SDS011;12385;51.412;5.540;2024-01-27T14:21:00;17.10;;;3.53;;
24261;SDS011;12385;51.412;5.540;2024-01-27T14:23:27;16.20;;;3.47;;
24261;SDS011;12385;51.412;5.540;2024-01-27T14:25:56;17.40;;;4.05;;